createdAt,value
2017-12-23T00:02:03.705Z,24.90
2017-12-23T00:04:31.939Z,26.07
2017-12-23T00:07:00.152Z,29.07
2017-12-23T00:09:28.845Z,26.70
2017-12-23T00:11:57.749Z,27.70
2017-12-23T00:14:25.872Z,26.40
2017-12-23T00:16:54.776Z,27.10
2017-12-23T00:19:22.914Z,28.20
2017-12-23T00:21:51.048Z,27.57
2017-12-23T00:24:19.225Z,27.77
2017-12-23T00:26:47.630Z,27.10
2017-12-23T00:29:15.764Z,27.70
2017-12-23T00:31:43.908Z,26.57
2017-12-23T00:34:12.861Z,28.10
2017-12-23T00:36:41.750Z,27.60
2017-12-23T00:39:10.653Z,27.20
2017-12-23T00:41:39.553Z,26.07
2017-12-23T00:44:07.686Z,29.40
2017-12-23T00:46:35.836Z,27.33
2017-12-23T00:49:03.982Z,28.30
2017-12-23T00:51:32.116Z,28.87
2017-12-23T00:54:04.013Z,26.93
2017-12-23T00:56:32.912Z,27.33
2017-12-23T00:59:01.054Z,27.40
2017-12-23T01:01:29.978Z,27.67
2017-12-23T01:04:00.044Z,27.50
2017-12-23T01:06:28.202Z,27.90
2017-12-23T01:08:57.101Z,27.20
2017-12-23T01:11:25.241Z,27.80
2017-12-23T01:13:53.704Z,26.37
2017-12-23T01:16:23.776Z,27.33
2017-12-23T01:18:51.968Z,27.30
2017-12-23T01:21:20.105Z,27.47
2017-12-23T01:23:48.247Z,28.53
2017-12-23T01:26:16.380Z,30.50
2017-12-23T01:28:45.296Z,31.40
2017-12-23T01:31:13.427Z,28.90
2017-12-23T01:33:41.573Z,28.87
2017-12-23T01:36:09.724Z,26.83
2017-12-23T01:38:37.864Z,26.60
2017-12-23T01:41:06.709Z,29.37
2017-12-23T01:43:34.845Z,27.93
2017-12-23T01:46:03.001Z,26.70
2017-12-23T01:48:34.624Z,26.50
2017-12-23T01:51:03.653Z,27.47
2017-12-23T01:53:32.814Z,27.23
2017-12-23T01:56:01.980Z,29.13
2017-12-23T01:58:31.114Z,28.40
2017-12-23T02:00:59.233Z,27.80
2017-12-23T02:03:27.361Z,25.07
2017-12-23T02:05:55.500Z,26.87
2017-12-23T02:08:23.651Z,26.50
2017-12-23T02:10:52.553Z,28.47
2017-12-23T02:13:21.458Z,28.80
2017-12-23T02:15:49.581Z,26.77
2017-12-23T02:18:17.741Z,29.83
2017-12-23T02:20:45.870Z,28.53
2017-12-23T02:23:14.016Z,28.40
2017-12-23T02:25:43.860Z,27.30
2017-12-23T02:28:12.023Z,27.30
2017-12-23T02:30:41.012Z,27.93
2017-12-23T02:33:09.157Z,26.37
2017-12-23T02:35:37.396Z,27.60
2017-12-23T02:38:06.312Z,28.90
2017-12-23T02:40:35.234Z,26.30
2017-12-23T02:43:04.061Z,29.20
2017-12-23T02:45:32.209Z,28.37
2017-12-23T02:48:00.369Z,26.20
2017-12-23T02:50:29.266Z,27.87
2017-12-23T02:52:57.399Z,28.77
2017-12-23T02:55:26.533Z,27.10
2017-12-23T02:57:54.665Z,26.67
2017-12-23T03:00:23.582Z,30.03
2017-12-23T03:02:51.728Z,29.70
2017-12-23T03:05:20.560Z,26.90
2017-12-23T03:07:49.464Z,29.07
2017-12-23T03:10:17.633Z,29.70
2017-12-23T03:12:45.768Z,29.60
2017-12-23T03:15:13.904Z,30.77
2017-12-23T03:17:42.841Z,29.93
2017-12-23T03:20:10.977Z,30.20
2017-12-23T03:22:43.742Z,30.43
2017-12-23T03:25:12.654Z,29.57
2017-12-23T03:27:40.781Z,30.87
2017-12-23T03:30:09.702Z,28.67
2017-12-23T03:32:38.656Z,30.17
2017-12-23T03:35:06.800Z,29.00
2017-12-23T03:37:34.935Z,30.10
2017-12-23T03:40:03.095Z,30.10
2017-12-23T03:42:31.224Z,28.07
2017-12-23T03:44:59.365Z,29.70
2017-12-23T03:47:28.044Z,30.33
2017-12-23T03:49:56.185Z,29.10
2017-12-23T03:52:24.324Z,31.40
2017-12-23T03:54:52.504Z,29.60
2017-12-23T03:57:20.687Z,30.40
2017-12-23T03:59:48.812Z,29.23
2017-12-23T04:02:17.732Z,30.43
2017-12-23T04:04:45.860Z,30.77
2017-12-23T04:07:14.005Z,30.90
2017-12-23T04:09:42.716Z,30.20
2017-12-23T04:12:11.624Z,30.60
2017-12-23T04:14:39.767Z,29.67
2017-12-23T04:17:07.905Z,28.67
2017-12-23T04:19:36.822Z,30.37
2017-12-23T04:22:04.944Z,31.03
2017-12-23T04:24:33.092Z,31.00
2017-12-23T04:27:01.216Z,28.30
2017-12-23T04:29:29.353Z,27.80
2017-12-23T04:31:57.480Z,29.47
2017-12-23T04:34:25.620Z,31.10
2017-12-23T04:36:54.305Z,28.43
2017-12-23T04:39:23.216Z,28.87
2017-12-23T04:41:52.124Z,29.67
2017-12-23T04:44:20.287Z,29.53
2017-12-23T04:46:48.424Z,29.90
2017-12-23T04:49:16.564Z,30.10
2017-12-23T04:51:46.209Z,27.93
2017-12-23T04:54:14.344Z,28.87
2017-12-23T04:56:42.504Z,32.10
2017-12-23T04:59:11.591Z,32.90
2017-12-23T05:01:39.741Z,32.27
2017-12-23T05:04:09.167Z,32.37
2017-12-23T05:06:37.285Z,31.90
2017-12-23T05:09:05.427Z,33.03
2017-12-23T05:11:33.557Z,29.70
2017-12-23T05:14:01.698Z,31.13
2017-12-23T05:16:30.780Z,31.50
2017-12-23T05:18:59.489Z,30.50
2017-12-23T05:21:27.626Z,31.20
2017-12-23T05:23:55.773Z,30.70
2017-12-23T05:26:23.905Z,33.13
2017-12-23T05:28:52.921Z,31.57
2017-12-23T05:31:21.040Z,33.43
2017-12-23T05:33:49.208Z,32.57
2017-12-23T05:36:18.512Z,31.77
2017-12-23T05:38:46.656Z,31.10
2017-12-23T05:41:14.820Z,31.30
2017-12-23T05:43:43.580Z,34.93
2017-12-23T05:46:11.696Z,30.93
2017-12-23T05:48:39.824Z,31.17
2017-12-23T05:51:07.964Z,32.10
2017-12-23T05:53:36.108Z,33.80
2017-12-23T05:56:04.240Z,32.00
2017-12-23T05:58:32.378Z,32.10
2017-12-23T06:01:00.510Z,32.57
2017-12-23T06:03:29.881Z,30.67
2017-12-23T06:05:58.078Z,33.47
2017-12-23T06:08:26.218Z,31.00
2017-12-23T06:10:54.356Z,31.77
2017-12-23T06:13:22.505Z,32.50
2017-12-23T06:15:51.413Z,31.27
2017-12-23T06:18:19.543Z,30.80
2017-12-23T06:20:49.391Z,30.97
2017-12-23T06:23:17.512Z,33.17
2017-12-23T06:25:45.643Z,33.07
2017-12-23T06:28:13.796Z,35.20
2017-12-23T06:30:41.916Z,35.57
2017-12-23T06:33:10.061Z,33.77
2017-12-23T06:35:38.203Z,31.60
2017-12-23T06:38:06.370Z,34.20
2017-12-23T06:40:34.534Z,30.20
2017-12-23T06:43:02.661Z,32.00
2017-12-23T06:45:31.659Z,32.87
2017-12-23T06:47:59.804Z,33.37
2017-12-23T06:50:29.349Z,33.93
2017-12-23T06:52:57.508Z,32.73
2017-12-23T06:55:25.627Z,31.50
2017-12-23T06:57:54.236Z,31.60
2017-12-23T07:00:22.384Z,33.53
2017-12-23T07:02:50.528Z,33.43
2017-12-23T07:05:19.420Z,33.87
2017-12-23T07:07:47.579Z,31.83
2017-12-23T07:10:15.718Z,32.77
2017-12-23T07:12:44.597Z,33.53
2017-12-23T07:15:12.768Z,34.10
2017-12-23T07:17:40.904Z,33.13
2017-12-23T07:20:09.062Z,30.90
2017-12-23T07:22:37.971Z,30.60
2017-12-23T07:25:06.163Z,33.13
2017-12-23T07:27:35.057Z,31.60
2017-12-23T07:30:03.212Z,31.50
2017-12-23T07:32:31.332Z,30.37
2017-12-23T07:35:00.239Z,32.13
2017-12-23T07:37:29.162Z,29.80
2017-12-23T07:39:57.496Z,29.70
2017-12-23T07:42:25.624Z,29.57
2017-12-23T07:44:54.517Z,30.43
2017-12-23T07:47:23.437Z,28.40
2017-12-23T07:49:51.579Z,31.80
2017-12-23T07:52:19.710Z,33.10
2017-12-23T07:54:47.852Z,35.53
2017-12-23T07:57:16.020Z,29.87
2017-12-23T07:59:45.456Z,31.47
2017-12-23T08:02:13.608Z,30.57
2017-12-23T08:04:41.743Z,31.33
2017-12-23T08:07:09.916Z,31.47
2017-12-23T08:09:38.045Z,30.73
2017-12-23T08:12:06.218Z,30.80
2017-12-23T08:14:35.959Z,29.73
2017-12-23T08:17:05.433Z,30.23
2017-12-23T08:19:33.585Z,29.83
2017-12-23T08:22:02.477Z,29.97
2017-12-23T08:24:30.613Z,31.40
2017-12-23T08:26:58.750Z,28.00
2017-12-23T08:29:26.901Z,27.77
2017-12-23T08:31:55.797Z,28.27
2017-12-23T08:34:23.965Z,27.90
2017-12-23T08:36:52.129Z,28.50
2017-12-23T08:39:20.282Z,28.40
2017-12-23T08:41:49.748Z,26.30
2017-12-23T08:44:19.502Z,28.17
2017-12-23T08:46:48.418Z,26.00
2017-12-23T08:49:17.348Z,28.50
2017-12-23T08:51:45.470Z,25.80
2017-12-23T08:54:13.633Z,25.57
2017-12-23T08:56:41.766Z,26.43
2017-12-23T08:59:09.933Z,26.13
2017-12-23T09:01:38.113Z,26.90
2017-12-23T09:04:06.874Z,24.60
2017-12-23T09:06:35.772Z,26.17
2017-12-23T09:09:03.930Z,25.30
2017-12-23T09:11:32.068Z,24.50
2017-12-23T09:14:00.250Z,26.77
2017-12-23T09:16:28.401Z,27.57
2017-12-23T09:18:57.312Z,25.20
2017-12-23T09:21:26.240Z,26.77
2017-12-23T09:23:54.424Z,26.97
2017-12-23T09:26:22.752Z,27.80
2017-12-23T09:28:50.857Z,26.80
2017-12-23T09:31:19.017Z,25.93
2017-12-23T09:33:47.180Z,27.20
2017-12-23T09:36:15.330Z,24.73
2017-12-23T09:38:44.258Z,24.67
2017-12-23T09:41:12.395Z,24.07
2017-12-23T09:43:40.522Z,26.87
2017-12-23T09:46:08.670Z,27.37
2017-12-23T09:48:36.810Z,23.60
2017-12-23T09:51:05.324Z,24.70
2017-12-23T09:53:33.462Z,24.23
2017-12-23T09:56:02.411Z,27.00
2017-12-23T09:58:31.338Z,27.67
2017-12-23T10:01:00.264Z,27.83
2017-12-23T10:03:28.400Z,28.10
2017-12-23T10:05:56.543Z,25.13
2017-12-23T10:08:25.456Z,24.57
2017-12-23T10:10:53.603Z,24.40
2017-12-23T10:13:21.761Z,24.70
2017-12-23T10:15:49.893Z,25.60
2017-12-23T10:18:18.852Z,26.20
2017-12-23T10:20:46.997Z,26.17
2017-12-23T10:23:16.820Z,25.30
2017-12-23T10:25:45.010Z,26.23
2017-12-23T10:28:13.147Z,23.87
2017-12-23T10:30:41.305Z,22.80
2017-12-23T10:33:09.528Z,22.50
2017-12-23T10:35:37.671Z,26.40
2017-12-23T10:38:05.873Z,31.03
2017-12-23T10:40:34.029Z,23.60
2017-12-23T10:43:02.916Z,23.87
2017-12-23T10:45:31.076Z,24.13
2017-12-23T10:48:00.011Z,22.90
2017-12-23T10:50:28.126Z,21.60
2017-12-23T10:52:56.268Z,20.03
2017-12-23T10:55:24.438Z,20.70
2017-12-23T10:57:53.513Z,21.07
2017-12-23T11:00:21.686Z,20.90
2017-12-23T11:02:49.851Z,20.30
2017-12-23T11:05:17.995Z,21.03
2017-12-23T11:07:46.144Z,18.60
2017-12-23T11:10:15.118Z,18.40
2017-12-23T11:12:43.202Z,17.50
2017-12-23T11:15:11.371Z,18.10
2017-12-23T11:17:39.514Z,18.00
2017-12-23T11:20:07.682Z,16.33
2017-12-23T11:22:36.596Z,15.30
2017-12-23T11:25:05.505Z,16.57
2017-12-23T11:27:33.655Z,15.00
2017-12-23T11:30:01.796Z,16.80
2017-12-23T11:32:29.956Z,16.47
2017-12-23T11:34:58.090Z,14.57
2017-12-23T11:37:27.016Z,15.40
2017-12-23T11:39:55.148Z,15.77
2017-12-23T11:42:23.282Z,15.10
2017-12-23T11:44:51.425Z,16.90
2017-12-23T11:47:19.548Z,16.03
2017-12-23T11:49:47.696Z,15.60
2017-12-23T11:52:15.853Z,14.90
2017-12-23T11:54:44.769Z,15.90
2017-12-23T11:57:13.492Z,14.60
2017-12-23T11:59:41.637Z,15.63
2017-12-23T12:02:10.536Z,14.20
2017-12-23T12:04:39.457Z,13.50
2017-12-23T12:07:09.180Z,14.77
2017-12-23T12:09:37.891Z,13.60
2017-12-23T12:12:07.026Z,12.90
2017-12-23T12:14:35.192Z,12.30
2017-12-23T12:17:03.336Z,13.17
2017-12-23T12:19:31.480Z,13.40
2017-12-23T12:21:59.630Z,12.80
2017-12-23T12:24:28.556Z,13.60
2017-12-23T12:26:56.726Z,13.50
2017-12-23T12:29:25.624Z,13.60
2017-12-23T12:31:54.105Z,11.00
2017-12-23T12:34:22.247Z,13.53
2017-12-23T12:36:50.410Z,12.83
2017-12-23T12:39:18.563Z,12.20
2017-12-23T12:41:47.467Z,14.30
2017-12-23T12:44:17.115Z,14.30
2017-12-23T12:46:45.269Z,11.77
2017-12-23T12:49:14.348Z,13.90
2017-12-23T12:51:42.505Z,12.67
2017-12-23T12:54:10.677Z,13.33
2017-12-23T12:56:38.829Z,11.97
2017-12-23T12:59:06.985Z,12.63
2017-12-23T13:01:35.136Z,12.23
2017-12-23T13:04:03.293Z,11.80
2017-12-23T13:06:31.469Z,11.53
2017-12-23T13:09:00.506Z,13.53
2017-12-23T13:11:29.421Z,13.17
2017-12-23T13:13:57.566Z,10.57
2017-12-23T13:16:25.731Z,10.87
2017-12-23T13:18:53.865Z,11.97
2017-12-23T13:21:22.768Z,10.80
2017-12-23T13:23:51.668Z,11.37
2017-12-23T13:26:20.580Z,11.77
2017-12-23T13:28:48.769Z,11.10
2017-12-23T13:31:16.908Z,11.70
2017-12-23T13:33:45.067Z,10.70
2017-12-23T13:36:13.205Z,10.90
2017-12-23T13:38:42.146Z,10.63
2017-12-23T13:41:10.286Z,10.70
2017-12-23T13:43:38.475Z,10.50
2017-12-23T13:46:06.617Z,10.77
2017-12-23T13:48:34.786Z,11.33
2017-12-23T13:51:03.009Z,11.30
2017-12-23T13:53:31.174Z,11.90
2017-12-23T13:55:59.314Z,11.50
2017-12-23T13:58:27.490Z,10.67
2017-12-23T14:00:55.656Z,11.40
2017-12-23T14:03:23.789Z,11.50
2017-12-23T14:05:51.944Z,12.23
2017-12-23T14:08:20.185Z,12.87
2017-12-23T14:10:48.336Z,12.57
2017-12-23T14:13:17.255Z,12.77
2017-12-23T14:15:47.116Z,12.07
2017-12-23T14:18:16.165Z,12.17
2017-12-23T14:20:44.343Z,10.00
2017-12-23T14:23:12.502Z,11.57
2017-12-23T14:25:40.653Z,12.50
2017-12-23T14:28:09.557Z,12.60
2017-12-23T14:30:37.725Z,12.17
2017-12-23T14:33:06.624Z,13.70
2017-12-23T14:35:34.778Z,15.80
2017-12-23T14:38:02.915Z,14.13
2017-12-23T14:40:31.841Z,15.90
2017-12-23T14:43:00.004Z,16.73
2017-12-23T14:45:28.905Z,18.00
2017-12-23T14:47:57.796Z,15.90
2017-12-23T14:50:26.703Z,14.70
2017-12-23T14:52:55.833Z,12.63
2017-12-23T14:55:23.954Z,13.87
2017-12-23T14:57:52.118Z,12.63
2017-12-23T15:00:20.256Z,12.87
2017-12-23T15:02:49.009Z,13.10
2017-12-23T15:05:17.118Z,11.93
2017-12-23T15:07:45.270Z,12.53
2017-12-23T15:10:13.429Z,11.83
2017-12-23T15:12:42.349Z,12.33
2017-12-23T15:15:11.021Z,11.70
2017-12-23T15:17:42.554Z,12.80
2017-12-23T15:20:11.312Z,13.53
2017-12-23T15:22:40.213Z,13.00
2017-12-23T15:25:09.141Z,11.77
2017-12-23T15:27:37.266Z,12.17
2017-12-23T15:30:05.421Z,11.60
2017-12-23T15:32:34.268Z,12.07
2017-12-23T15:35:03.196Z,11.83
2017-12-23T15:37:32.104Z,11.70
2017-12-23T15:40:01.029Z,11.13
2017-12-23T15:42:29.172Z,11.50
2017-12-23T15:44:58.114Z,11.03
2017-12-23T15:47:26.250Z,11.73
2017-12-23T15:49:54.406Z,10.40
2017-12-23T15:52:23.327Z,10.60
2017-12-23T15:54:51.479Z,11.50
2017-12-23T15:57:19.637Z,11.23
2017-12-23T15:59:47.805Z,11.77
2017-12-23T16:02:16.722Z,10.57
2017-12-23T16:04:45.624Z,11.53
2017-12-23T16:07:14.540Z,10.87
2017-12-23T16:09:43.431Z,10.93
2017-12-23T16:12:12.346Z,10.57
2017-12-23T16:14:41.268Z,10.03
2017-12-23T16:17:09.423Z,9.60
2017-12-23T16:19:38.330Z,10.60
2017-12-23T16:22:07.248Z,10.90
2017-12-23T16:24:35.392Z,10.57
2017-12-23T16:27:03.513Z,10.87
2017-12-23T16:29:31.668Z,13.20
2017-12-23T16:31:59.821Z,11.57
2017-12-23T16:34:27.989Z,10.90
2017-12-23T16:36:56.152Z,10.40
2017-12-23T16:39:24.274Z,10.67
2017-12-23T16:41:54.604Z,20.60
2017-12-23T16:44:22.755Z,11.73
2017-12-23T16:46:51.649Z,10.67
2017-12-23T16:49:20.584Z,10.93
2017-12-23T16:51:48.719Z,10.03
2017-12-23T16:54:17.612Z,11.30
2017-12-23T16:56:45.823Z,11.07
2017-12-23T16:59:13.979Z,8.70
2017-12-23T17:01:42.136Z,9.67
2017-12-23T17:04:10.314Z,10.20
2017-12-23T17:06:39.344Z,11.00
2017-12-23T17:09:07.500Z,10.20
2017-12-23T17:11:36.494Z,9.87
2017-12-23T17:14:05.924Z,9.90
2017-12-23T17:16:34.850Z,9.53
2017-12-23T17:19:02.982Z,10.37
2017-12-23T17:21:31.150Z,9.93
2017-12-23T17:23:59.280Z,9.83
2017-12-23T17:26:28.184Z,9.30
2017-12-23T17:29:08.960Z,9.83
2017-12-23T17:31:37.889Z,9.53
2017-12-23T17:34:06.029Z,9.60
2017-12-23T17:36:34.185Z,9.23
2017-12-23T17:39:02.316Z,9.00
2017-12-23T17:41:30.492Z,9.33
2017-12-23T17:43:58.624Z,10.93
2017-12-23T17:46:26.775Z,10.57
2017-12-23T17:48:55.673Z,9.77
2017-12-23T17:51:23.829Z,10.10
2017-12-23T17:53:51.989Z,12.27
2017-12-23T17:56:20.957Z,12.60
2017-12-23T17:58:49.119Z,9.13
2017-12-23T18:01:17.256Z,8.93
2017-12-23T18:03:45.445Z,9.57
2017-12-23T18:06:13.590Z,8.13
2017-12-23T18:08:41.733Z,9.53
2017-12-23T18:11:09.865Z,8.87
2017-12-23T18:13:38.050Z,9.80
2017-12-23T18:16:06.218Z,8.37
2017-12-23T18:18:34.376Z,7.90
2017-12-23T18:21:02.502Z,6.80
2017-12-23T18:23:30.644Z,7.63
2017-12-23T18:25:58.781Z,6.23
2017-12-23T18:28:26.917Z,6.40
2017-12-23T18:30:55.061Z,6.07
2017-12-23T18:33:23.202Z,6.87
2017-12-23T18:35:51.354Z,7.00
2017-12-23T18:38:20.248Z,6.10
2017-12-23T18:40:49.148Z,5.37
2017-12-23T18:43:18.049Z,6.23
2017-12-23T18:45:46.976Z,6.20
2017-12-23T18:48:15.137Z,6.33
2017-12-23T18:50:44.059Z,5.97
2017-12-23T18:53:13.840Z,6.07
2017-12-23T18:55:41.979Z,5.43
2017-12-23T18:58:10.131Z,6.03
2017-12-23T19:00:38.332Z,5.50
2017-12-23T19:03:06.482Z,5.10
2017-12-23T19:05:36.126Z,5.60
2017-12-23T19:08:04.296Z,5.87
2017-12-23T19:10:32.418Z,6.20
2017-12-23T19:13:01.319Z,4.67
2017-12-23T19:15:30.217Z,5.57
2017-12-23T19:18:00.573Z,4.80
2017-12-23T19:20:29.508Z,4.80
2017-12-23T19:22:57.656Z,5.77
2017-12-23T19:25:26.561Z,4.40
2017-12-23T19:27:54.697Z,5.00
2017-12-23T19:30:22.855Z,5.57
2017-12-23T19:32:50.968Z,5.33
2017-12-23T19:35:20.637Z,4.90
2017-12-23T19:37:48.769Z,4.93
2017-12-23T19:40:17.479Z,4.50
2017-12-23T19:42:45.605Z,4.93
2017-12-23T19:45:13.788Z,4.50
2017-12-23T19:47:41.929Z,4.40
2017-12-23T19:50:10.051Z,4.23
2017-12-23T19:52:38.964Z,4.13
2017-12-23T19:55:07.864Z,4.30
2017-12-23T19:57:36.776Z,5.10
2017-12-23T20:00:05.695Z,3.77
2017-12-23T20:02:33.861Z,4.10
2017-12-23T20:05:02.761Z,3.83
2017-12-23T20:07:31.694Z,4.60
2017-12-23T20:09:59.844Z,4.00
2017-12-23T20:12:28.758Z,5.07
2017-12-23T20:14:57.690Z,3.90
2017-12-23T20:17:25.844Z,3.57
2017-12-23T20:19:54.744Z,3.80
2017-12-23T20:22:23.635Z,3.70
2017-12-23T20:24:51.811Z,3.43
2017-12-23T20:27:19.970Z,3.60
2017-12-23T20:29:48.141Z,3.20
2017-12-23T20:32:16.286Z,3.10
2017-12-23T20:34:44.499Z,3.77
2017-12-23T20:37:12.623Z,3.70
2017-12-23T20:39:40.842Z,3.50
2017-12-23T20:42:08.995Z,3.30
2017-12-23T20:44:37.141Z,3.20
2017-12-23T20:47:05.277Z,3.13
2017-12-23T20:49:34.362Z,2.90
2017-12-23T20:52:02.554Z,4.40
2017-12-23T20:54:30.673Z,5.80
2017-12-23T20:56:59.386Z,7.43
2017-12-23T20:59:27.522Z,6.07
2017-12-23T21:01:55.666Z,5.80
2017-12-23T21:04:24.634Z,5.33
2017-12-23T21:06:54.468Z,4.10
2017-12-23T21:09:22.610Z,5.30
2017-12-23T21:11:50.788Z,3.97
2017-12-23T21:14:18.932Z,3.93
2017-12-23T21:16:47.076Z,4.43
2017-12-23T21:19:15.249Z,4.20
2017-12-23T21:21:43.409Z,4.70
2017-12-23T21:24:12.338Z,4.80
2017-12-23T21:26:40.462Z,3.67
2017-12-23T21:29:08.631Z,4.57
2017-12-23T21:31:36.778Z,4.67
2017-12-23T21:34:04.907Z,3.87
2017-12-23T21:36:33.060Z,3.60
2017-12-23T21:39:01.203Z,4.27
2017-12-23T21:41:29.333Z,4.23
2017-12-23T21:43:58.278Z,4.17
2017-12-23T21:46:28.023Z,3.90
2017-12-23T21:48:56.173Z,5.67
2017-12-23T21:51:24.356Z,4.87
2017-12-23T21:53:52.481Z,3.90
2017-12-23T21:56:20.652Z,3.27
2017-12-23T21:58:48.780Z,3.63
2017-12-23T22:01:17.709Z,3.63
2017-12-23T22:03:45.826Z,4.20
2017-12-23T22:06:13.967Z,3.80
2017-12-23T22:08:42.131Z,3.60
2017-12-23T22:11:11.225Z,4.37
2017-12-23T22:13:39.350Z,4.20
2017-12-23T22:16:07.499Z,4.30
2017-12-23T22:18:35.633Z,4.20
2017-12-23T22:21:03.981Z,5.70
2017-12-23T22:23:32.119Z,6.10
2017-12-23T22:26:00.285Z,7.00
2017-12-23T22:28:29.180Z,5.90
2017-12-23T22:30:58.081Z,7.10
2017-12-23T22:33:27.018Z,7.40
2017-12-23T22:35:55.155Z,6.07
2017-12-23T22:38:23.963Z,6.70
2017-12-23T22:40:52.887Z,5.03
2017-12-23T22:43:21.795Z,5.00
2017-12-23T22:45:49.944Z,5.10
2017-12-23T22:48:19.247Z,7.03
2017-12-23T22:50:47.386Z,6.17
2017-12-23T22:53:16.075Z,6.93
2017-12-23T22:55:44.893Z,6.27
2017-12-23T22:58:13.019Z,5.70
2017-12-23T23:00:41.162Z,6.17
2017-12-23T23:03:10.057Z,5.60
2017-12-23T23:05:38.241Z,5.70
2017-12-23T23:08:08.379Z,6.63
2017-12-23T23:10:36.557Z,6.00
2017-12-23T23:13:04.684Z,6.70
2017-12-23T23:15:32.869Z,5.93
2017-12-23T23:18:01.034Z,5.47
2017-12-23T23:20:29.160Z,5.97
2017-12-23T23:22:57.293Z,5.97
2017-12-23T23:25:26.197Z,6.47
2017-12-23T23:27:54.390Z,6.40
2017-12-23T23:30:23.257Z,5.67
2017-12-23T23:32:52.152Z,7.63
2017-12-23T23:35:21.070Z,6.87
2017-12-23T23:37:49.977Z,7.27
2017-12-23T23:40:18.889Z,6.83
2017-12-23T23:42:47.872Z,7.57
2017-12-23T23:45:15.962Z,7.70
2017-12-23T23:47:44.862Z,7.90
2017-12-23T23:50:13.774Z,7.47
2017-12-23T23:52:42.685Z,8.33
2017-12-23T23:55:10.833Z,7.73
2017-12-23T23:57:39.776Z,8.70
